createdAt,value
2022-12-17T00:02:42.861Z,-3.79
2022-12-17T00:07:45.858Z,-3.89
2022-12-17T00:12:49.433Z,-3.81
2022-12-17T00:18:04.175Z,-3.94
2022-12-17T00:23:18.125Z,-3.83
2022-12-17T00:28:26.132Z,-3.95
2022-12-17T00:33:31.785Z,-3.94
2022-12-17T00:38:35.555Z,-3.94
2022-12-17T00:43:40.333Z,-3.95
2022-12-17T00:48:47.532Z,-3.95
2022-12-17T00:53:54.294Z,-3.93
2022-12-17T00:59:01.564Z,-3.98
2022-12-17T01:04:08.342Z,-4.03
2022-12-17T01:09:11.535Z,-4.08
2022-12-17T01:14:16.271Z,-3.97
2022-12-17T01:19:22.292Z,-3.98
2022-12-17T01:24:28.866Z,-4.01
2022-12-17T01:29:32.245Z,-4.07
2022-12-17T01:34:39.295Z,-4.12
2022-12-17T01:39:42.742Z,-4.07
2022-12-17T01:45:02.251Z,-4.15
2022-12-17T01:50:15.172Z,-4.10
2022-12-17T01:55:19.708Z,-4.16
2022-12-17T02:00:26.039Z,-4.12
2022-12-17T02:05:32.494Z,-4.14
2022-12-17T02:10:40.083Z,-3.99
2022-12-17T02:15:44.884Z,-3.85
2022-12-17T02:20:54.681Z,-3.72
2022-12-17T02:26:05.585Z,-3.57
2022-12-17T02:31:12.786Z,-3.36
2022-12-17T02:36:19.155Z,-3.17
2022-12-17T02:41:22.924Z,-3.06
2022-12-17T02:46:29.301Z,-2.92
2022-12-17T02:51:35.459Z,-2.82
2022-12-17T02:56:44.236Z,-2.72
2022-12-17T03:01:50.548Z,-2.66
2022-12-17T03:06:56.342Z,-2.58
2022-12-17T03:11:59.153Z,-2.54
2022-12-17T03:17:04.926Z,-2.49
2022-12-17T03:22:07.821Z,-2.47
2022-12-17T03:27:10.699Z,-2.44
2022-12-17T03:32:17.776Z,-2.39
2022-12-17T03:37:23.769Z,-2.35
2022-12-17T03:42:28.798Z,-2.33
2022-12-17T03:47:37.866Z,-2.34
2022-12-17T03:52:41.858Z,-2.37
2022-12-17T03:57:46.371Z,-2.39
2022-12-17T04:02:53.580Z,-2.41
2022-12-17T04:07:56.634Z,-2.45
2022-12-17T04:12:59.412Z,-2.49
2022-12-17T04:18:05.093Z,-2.51
2022-12-17T04:23:08.109Z,-2.54
2022-12-17T04:28:10.763Z,-2.54
2022-12-17T04:33:16.110Z,-2.55
2022-12-17T04:38:19.162Z,-2.55
2022-12-17T04:43:22.434Z,-2.57
2022-12-17T04:48:30.942Z,-2.57
2022-12-17T04:53:34.584Z,-2.58
2022-12-17T04:58:37.772Z,-2.56
2022-12-17T05:03:43.932Z,-2.56
2022-12-17T05:08:46.934Z,-2.55
2022-12-17T05:13:49.546Z,-2.51
2022-12-17T05:18:54.750Z,-2.49
2022-12-17T05:23:57.219Z,-2.47
2022-12-17T05:28:59.713Z,-2.43
2022-12-17T05:34:05.413Z,-2.40
2022-12-17T05:39:09.113Z,-2.35
2022-12-17T05:44:11.745Z,-2.32
2022-12-17T05:49:17.122Z,-2.31
2022-12-17T05:54:19.974Z,-2.30
2022-12-17T05:59:22.909Z,-2.29
2022-12-17T06:04:28.851Z,-2.39
2022-12-17T06:09:32.176Z,-2.29
2022-12-17T06:14:38.578Z,-2.34
2022-12-17T06:19:50.085Z,-2.38
2022-12-17T06:24:56.215Z,-2.47
2022-12-17T06:30:04.142Z,-2.48
2022-12-17T06:35:14.295Z,-2.54
2022-12-17T06:40:19.307Z,-2.63
2022-12-17T06:45:33.749Z,-2.79
2022-12-17T06:50:41.952Z,-2.79
2022-12-17T06:56:01.370Z,-3.05
2022-12-17T07:01:07.753Z,-2.99
2022-12-17T07:06:20.342Z,-3.07
2022-12-17T07:11:23.533Z,-3.11
2022-12-17T07:16:27.687Z,-3.45
2022-12-17T07:21:34.065Z,-3.48
2022-12-17T07:26:38.193Z,-3.57
2022-12-17T07:31:42.624Z,-3.71
2022-12-17T07:37:00.848Z,-3.84
2022-12-17T07:42:04.593Z,-3.95
2022-12-17T07:47:10.233Z,-4.01
2022-12-17T07:52:17.617Z,-4.09
2022-12-17T07:57:21.657Z,-4.03
2022-12-17T08:02:26.738Z,-4.03
2022-12-17T08:07:31.625Z,-3.94
2022-12-17T08:12:34.669Z,-3.90
2022-12-17T08:17:40.016Z,-3.85
2022-12-17T08:22:48.178Z,-3.79
2022-12-17T08:27:53.981Z,-3.82
2022-12-17T08:32:57.314Z,-3.72
2022-12-17T08:38:03.042Z,-3.76
2022-12-17T08:43:11.769Z,-3.63
2022-12-17T08:48:19.664Z,-3.58
2022-12-17T08:53:24.498Z,-3.55
2022-12-17T08:58:26.907Z,-3.45
2022-12-17T09:03:31.110Z,-3.36
2022-12-17T09:08:36.036Z,-3.24
2022-12-17T09:13:38.506Z,-3.13
2022-12-17T09:18:40.685Z,-3.04
2022-12-17T09:23:45.737Z,-2.99
2022-12-17T09:28:49.095Z,-2.96
2022-12-17T09:33:51.482Z,-2.92
2022-12-17T09:38:57.776Z,-2.85
2022-12-17T09:44:03.642Z,-2.81
2022-12-17T09:49:12.993Z,-2.74
2022-12-17T09:54:19.951Z,-2.46
2022-12-17T09:59:22.205Z,-2.09
2022-12-17T10:04:43.509Z,-1.60
2022-12-17T10:09:49.564Z,-1.03
2022-12-17T10:14:53.296Z,-0.91
2022-12-17T10:19:57.837Z,-0.52
2022-12-17T10:25:03.225Z,-0.42
2022-12-17T10:30:05.723Z,-0.37
2022-12-17T10:35:17.025Z,-0.33
2022-12-17T10:40:42.667Z,-0.27
2022-12-17T10:45:50.189Z,-0.39
2022-12-17T10:50:57.106Z,-0.37
2022-12-17T10:56:09.809Z,-0.34
2022-12-17T11:01:15.679Z,-0.44
2022-12-17T11:06:18.380Z,-0.51
2022-12-17T11:11:31.043Z,-0.51
2022-12-17T11:16:46.876Z,-0.65
2022-12-17T11:21:55.449Z,-0.46
2022-12-17T11:27:05.974Z,-0.23
2022-12-17T11:32:29.833Z,-0.24
2022-12-17T11:37:36.873Z,-0.23
2022-12-17T11:42:50.215Z,-0.29
2022-12-17T11:48:10.239Z,-0.33
2022-12-17T11:53:27.765Z,-0.36
2022-12-17T11:58:44.876Z,-0.37
2022-12-17T12:04:00.607Z,-0.44
2022-12-17T12:09:33.075Z,-0.67
2022-12-17T12:14:58.296Z,-0.78
2022-12-17T12:20:10.418Z,-0.66
2022-12-17T12:25:31.427Z,-0.68
2022-12-17T12:30:46.991Z,-0.82
2022-12-17T12:35:49.942Z,-0.98
2022-12-17T12:41:00.841Z,-1.02
2022-12-17T12:46:11.557Z,-0.95
2022-12-17T12:51:23.190Z,-0.97
2022-12-17T12:56:41.718Z,-0.98
2022-12-17T13:01:53.795Z,-0.96
2022-12-17T13:06:54.470Z,-1.19
2022-12-17T13:11:46.551Z,-1.03
2022-12-17T13:16:56.446Z,-1.14
2022-12-17T13:21:52.006Z,-1.26
2022-12-17T13:26:48.867Z,-1.24
2022-12-17T13:31:54.622Z,-1.28
2022-12-17T13:36:53.108Z,-1.30
2022-12-17T13:41:43.608Z,-1.38
2022-12-17T13:46:49.599Z,-1.44
2022-12-17T13:51:49.373Z,-2.00
2022-12-17T13:56:41.735Z,-1.53
2022-12-17T14:01:37.235Z,-1.65
2022-12-17T14:06:34.538Z,-1.62
2022-12-17T14:11:43.342Z,-1.62
2022-12-17T14:16:39.775Z,-1.76
2022-12-17T14:21:37.838Z,-1.67
2022-12-17T14:26:57.048Z,-1.66
2022-12-17T14:32:06.383Z,-1.69
2022-12-17T14:37:13.088Z,-1.68
2022-12-17T14:42:33.919Z,-1.69
2022-12-17T14:48:04.651Z,-1.73
2022-12-17T14:52:57.533Z,-1.75
2022-12-17T14:58:28.501Z,-1.76
2022-12-17T15:03:53.192Z,-1.84
2022-12-17T15:08:50.946Z,-1.82
2022-12-17T15:14:01.587Z,-1.98
2022-12-17T15:18:53.145Z,-1.81
2022-12-17T15:24:00.556Z,-1.84
2022-12-17T15:29:00.974Z,-1.87
2022-12-17T15:33:51.853Z,-1.99
2022-12-17T15:38:53.782Z,-1.91
2022-12-17T15:43:44.711Z,-1.92
2022-12-17T15:53:46.193Z,-1.96
2022-12-17T15:58:38.061Z,-1.94
2022-12-17T16:03:30.067Z,-2.37
2022-12-17T16:08:24.113Z,-1.98
2022-12-17T16:13:16.390Z,-2.09
2022-12-17T16:18:21.408Z,-2.05
2022-12-17T16:23:20.520Z,-2.11
2022-12-17T16:28:16.587Z,-2.13
2022-12-17T16:33:10.266Z,-2.13
2022-12-17T16:38:01.509Z,-2.19
2022-12-17T16:42:57.018Z,-2.12
2022-12-17T16:47:51.131Z,-2.09
2022-12-17T16:52:42.506Z,-2.09
2022-12-17T16:57:32.517Z,-2.15
2022-12-17T17:02:32.916Z,-2.18
2022-12-17T17:07:26.953Z,-2.25
2022-12-17T17:12:18.410Z,-2.36
2022-12-17T17:17:11.715Z,-2.37
2022-12-17T17:22:02.115Z,-2.44
2022-12-17T17:26:57.325Z,-2.49
2022-12-17T17:37:00.424Z,-2.45
2022-12-17T17:41:55.611Z,-2.43
2022-12-17T17:46:46.928Z,-2.50
2022-12-17T17:56:58.057Z,-2.57
2022-12-17T18:01:52.569Z,-2.60
2022-12-17T18:07:16.172Z,-2.66
2022-12-17T18:12:23.147Z,-2.76
2022-12-17T18:17:14.986Z,-2.75
2022-12-17T18:22:06.261Z,-2.90
2022-12-17T18:27:01.806Z,-2.84
2022-12-17T18:31:53.074Z,-2.77
2022-12-17T18:36:46.607Z,-2.88
2022-12-17T18:41:59.321Z,-2.89
2022-12-17T18:46:54.147Z,-2.99
2022-12-17T18:51:49.322Z,-3.02
2022-12-17T18:57:01.023Z,-3.06
2022-12-17T19:01:57.125Z,-3.04
2022-12-17T19:06:53.982Z,-3.01
2022-12-17T19:11:44.971Z,-3.06
2022-12-17T19:16:35.314Z,-3.10
2022-12-17T19:21:30.831Z,-3.21
2022-12-17T19:26:26.271Z,-3.11
2022-12-17T19:31:20.345Z,-3.09
2022-12-17T19:36:16.150Z,-3.13
2022-12-17T19:41:12.917Z,-3.19
2022-12-17T19:46:09.475Z,-3.26
2022-12-17T19:51:10.588Z,-3.34
2022-12-17T19:56:13.560Z,-3.29
2022-12-17T20:01:15.949Z,-3.31
2022-12-17T20:06:10.444Z,-3.29
2022-12-17T20:11:26.234Z,-3.29
2022-12-17T20:16:24.162Z,-3.31
2022-12-17T20:21:15.060Z,-3.33
2022-12-17T20:26:10.151Z,-3.36
2022-12-17T20:31:05.017Z,-3.37
2022-12-17T20:35:58.822Z,-3.35
2022-12-17T20:40:50.748Z,-3.34
2022-12-17T20:45:42.014Z,-3.44
2022-12-17T20:50:34.947Z,-3.42
2022-12-17T20:55:31.871Z,-3.45
2022-12-17T21:00:25.294Z,-3.46
2022-12-17T21:05:19.471Z,-3.45
2022-12-17T21:10:23.123Z,-3.52
2022-12-17T21:15:18.751Z,-3.46
2022-12-17T21:20:17.025Z,-3.41
2022-12-17T21:25:31.320Z,-3.41
2022-12-17T21:30:28.664Z,-3.27
2022-12-17T21:35:21.852Z,-3.28
2022-12-17T21:40:13.556Z,-3.29
2022-12-17T21:45:06.688Z,-3.29
2022-12-17T21:50:08.738Z,-3.26
2022-12-17T21:55:03.295Z,-3.32
2022-12-17T21:59:54.305Z,-3.32
2022-12-17T22:04:46.909Z,-3.27
2022-12-17T22:10:08.917Z,-3.29
2022-12-17T22:14:57.081Z,-3.29
2022-12-17T22:19:48.660Z,-3.29
2022-12-17T22:24:42.551Z,-3.30
2022-12-17T22:29:45.848Z,-3.28
2022-12-17T22:36:05.957Z,-3.36
2022-12-17T22:44:19.023Z,-3.39
2022-12-17T22:45:10.910Z,-3.39
2022-12-17T22:50:03.955Z,-3.41
2022-12-17T22:55:00.588Z,-3.43
2022-12-17T22:59:51.926Z,-3.39
2022-12-17T23:04:43.100Z,-3.46
2022-12-17T23:09:34.822Z,-3.43
2022-12-17T23:14:28.714Z,-3.46
2022-12-17T23:19:19.891Z,-3.47
2022-12-17T23:24:14.182Z,-3.47
2022-12-17T23:29:12.545Z,-3.44
2022-12-17T23:34:10.280Z,-3.54
2022-12-17T23:39:02.993Z,-3.40
2022-12-17T23:43:54.448Z,-3.43
2022-12-17T23:48:47.874Z,-3.59
2022-12-17T23:53:42.900Z,-3.55
2022-12-17T23:58:34.650Z,-3.63
